createdAt,value
2018-11-13T00:00:18.740Z,22.00
2018-11-13T00:02:47.697Z,22.50
2018-11-13T00:05:16.374Z,22.93
2018-11-13T00:07:45.198Z,22.87
2018-11-13T00:10:14.194Z,23.60
2018-11-13T00:12:42.982Z,21.53
2018-11-13T00:15:12.472Z,21.77
2018-11-13T00:17:41.166Z,21.77
2018-11-13T00:20:13.347Z,21.53
2018-11-13T00:22:42.565Z,21.40
2018-11-13T00:25:12.503Z,19.87
2018-11-13T00:27:41.877Z,21.10
2018-11-13T00:30:14.841Z,20.03
2018-11-13T00:32:43.747Z,19.90
2018-11-13T00:35:13.206Z,20.13
2018-11-13T00:37:41.924Z,19.87
2018-11-13T00:40:11.421Z,18.77
2018-11-13T00:42:40.360Z,18.27
2018-11-13T00:45:09.301Z,18.00
2018-11-13T00:47:38.020Z,18.00
2018-11-13T00:50:08.770Z,17.60
2018-11-13T00:52:37.413Z,16.63
2018-11-13T00:55:06.286Z,17.37
2018-11-13T00:57:34.917Z,17.13
2018-11-13T01:00:03.566Z,17.23
2018-11-13T01:02:32.207Z,16.33
2018-11-13T01:05:00.875Z,17.57
2018-11-13T01:07:29.463Z,16.47
2018-11-13T01:09:58.054Z,15.27
2018-11-13T01:12:26.623Z,15.83
2018-11-13T01:14:55.364Z,15.67
2018-11-13T01:17:23.980Z,16.20
2018-11-13T01:19:52.530Z,15.83
2018-11-13T01:22:21.200Z,15.80
2018-11-13T01:24:49.765Z,14.87
2018-11-13T01:27:18.411Z,14.60
2018-11-13T01:29:52.289Z,14.47
2018-11-13T01:32:20.916Z,14.83
2018-11-13T01:34:49.513Z,14.83
2018-11-13T01:37:18.121Z,14.53
2018-11-13T01:39:46.723Z,13.77
2018-11-13T01:42:15.794Z,14.17
2018-11-13T01:44:44.567Z,13.27
2018-11-13T01:47:13.086Z,13.80
2018-11-13T01:49:42.122Z,12.87
2018-11-13T01:52:10.280Z,13.10
2018-11-13T01:54:38.954Z,12.47
2018-11-13T01:57:07.680Z,11.73
2018-11-13T01:59:36.275Z,11.13
2018-11-13T02:02:05.144Z,11.60
2018-11-13T02:04:33.955Z,11.47
2018-11-13T02:07:02.727Z,11.73
2018-11-13T02:09:31.309Z,11.37
2018-11-13T02:11:59.931Z,11.47
2018-11-13T02:14:28.551Z,11.30
2018-11-13T02:16:57.228Z,11.17
2018-11-13T02:19:26.606Z,10.77
2018-11-13T02:21:55.412Z,10.30
2018-11-13T02:24:24.021Z,10.77
2018-11-13T02:26:52.728Z,10.40
2018-11-13T02:29:21.960Z,10.23
2018-11-13T02:31:50.574Z,10.47
2018-11-13T02:34:20.281Z,9.97
2018-11-13T02:36:48.869Z,10.17
2018-11-13T02:39:18.423Z,9.67
2018-11-13T02:41:46.962Z,9.47
2018-11-13T02:44:15.638Z,9.70
2018-11-13T02:46:44.196Z,9.77
2018-11-13T02:49:12.831Z,9.77
2018-11-13T02:51:41.491Z,9.10
2018-11-13T02:54:10.647Z,8.97
2018-11-13T02:56:39.358Z,9.40
2018-11-13T02:59:08.032Z,9.17
2018-11-13T03:01:36.757Z,9.13
2018-11-13T03:04:05.953Z,9.83
2018-11-13T03:06:35.231Z,10.17
2018-11-13T03:09:04.077Z,10.03
2018-11-13T03:11:33.737Z,9.93
2018-11-13T03:14:02.332Z,10.07
2018-11-13T03:16:31.491Z,9.30
2018-11-13T03:19:00.117Z,9.47
2018-11-13T03:21:28.755Z,9.83
2018-11-13T03:23:57.348Z,9.40
2018-11-13T03:26:25.958Z,9.37
2018-11-13T03:28:54.796Z,9.50
2018-11-13T03:31:23.422Z,9.50
2018-11-13T03:33:52.012Z,9.20
2018-11-13T03:36:20.599Z,9.80
2018-11-13T03:38:49.221Z,10.33
2018-11-13T03:41:18.126Z,9.50
2018-11-13T03:43:46.743Z,10.10
2018-11-13T03:46:15.377Z,10.03
2018-11-13T03:48:43.977Z,9.87
2018-11-13T03:51:12.587Z,10.27
2018-11-13T03:53:41.306Z,9.77
2018-11-13T03:56:09.905Z,10.00
2018-11-13T03:58:38.506Z,9.50
2018-11-13T04:01:07.199Z,9.03
2018-11-13T04:03:35.852Z,9.93
2018-11-13T04:06:04.768Z,10.27
2018-11-13T04:08:33.422Z,9.87
2018-11-13T04:11:01.989Z,10.07
2018-11-13T04:13:30.879Z,10.00
2018-11-13T04:15:59.534Z,8.77
2018-11-13T04:18:28.939Z,9.43
2018-11-13T04:20:57.541Z,9.73
2018-11-13T04:23:26.323Z,9.27
2018-11-13T04:25:55.077Z,10.03
2018-11-13T04:28:23.677Z,9.60
2018-11-13T04:30:52.429Z,9.23
2018-11-13T04:33:21.029Z,10.10
2018-11-13T04:35:49.700Z,10.00
2018-11-13T04:38:18.322Z,10.30
2018-11-13T04:40:46.873Z,10.00
2018-11-13T04:43:15.826Z,10.50
2018-11-13T04:45:44.446Z,9.40
2018-11-13T04:48:13.180Z,10.57
2018-11-13T04:50:41.770Z,9.93
2018-11-13T04:53:10.335Z,10.50
2018-11-13T04:55:38.965Z,10.77
2018-11-13T04:58:07.554Z,9.93
2018-11-13T05:00:36.196Z,10.60
2018-11-13T05:03:04.888Z,11.03
2018-11-13T05:05:33.443Z,10.80
2018-11-13T05:08:02.029Z,9.93
2018-11-13T05:10:30.641Z,10.17
2018-11-13T05:12:59.174Z,10.43
2018-11-13T05:15:27.722Z,10.97
2018-11-13T05:17:56.389Z,11.20
2018-11-13T05:20:24.966Z,10.93
2018-11-13T05:22:53.638Z,10.73
2018-11-13T05:25:22.257Z,10.53
2018-11-13T05:27:50.873Z,10.67
2018-11-13T05:30:22.053Z,11.27
2018-11-13T05:32:50.840Z,11.20
2018-11-13T05:35:21.461Z,11.70
2018-11-13T05:37:50.218Z,12.33
2018-11-13T05:40:20.425Z,12.13
2018-11-13T05:42:49.079Z,11.73
2018-11-13T05:45:19.122Z,11.83
2018-11-13T05:47:47.766Z,12.97
2018-11-13T05:50:17.216Z,12.60
2018-11-13T05:52:46.985Z,12.77
2018-11-13T05:55:16.119Z,12.63
2018-11-13T05:57:44.872Z,13.10
2018-11-13T06:00:18.658Z,12.87
2018-11-13T06:02:47.304Z,12.73
2018-11-13T06:05:16.170Z,12.60
2018-11-13T06:07:44.972Z,13.37
2018-11-13T06:10:14.636Z,12.53
2018-11-13T06:12:43.449Z,13.83
2018-11-13T06:15:12.496Z,14.33
2018-11-13T06:17:41.124Z,13.60
2018-11-13T06:20:11.341Z,14.00
2018-11-13T06:22:40.274Z,14.53
2018-11-13T06:25:11.918Z,13.90
2018-11-13T06:27:42.459Z,14.63
2018-11-13T06:30:17.367Z,15.23
2018-11-13T06:32:47.607Z,14.87
2018-11-13T06:35:16.233Z,14.47
2018-11-13T06:37:44.794Z,14.63
2018-11-13T06:40:14.035Z,14.43
2018-11-13T06:42:42.766Z,13.87
2018-11-13T06:45:15.235Z,14.23
2018-11-13T06:47:44.718Z,15.30
2018-11-13T06:50:14.073Z,14.70
2018-11-13T06:52:43.558Z,15.17
2018-11-13T06:55:17.636Z,14.73
2018-11-13T06:57:46.283Z,14.80
2018-11-13T07:00:14.931Z,15.53
2018-11-13T07:02:43.562Z,14.37
2018-11-13T07:05:14.278Z,13.93
2018-11-13T07:07:43.682Z,14.77
2018-11-13T07:10:21.275Z,14.20
2018-11-13T07:12:50.853Z,14.57
2018-11-13T07:15:20.828Z,13.93
2018-11-13T07:17:50.825Z,14.67
2018-11-13T07:20:21.148Z,14.00
2018-11-13T07:22:50.385Z,15.40
2018-11-13T07:25:19.306Z,14.03
2018-11-13T07:27:48.198Z,14.13
2018-11-13T07:30:18.005Z,13.70
2018-11-13T07:32:46.621Z,13.43
2018-11-13T07:35:16.887Z,13.07
2018-11-13T07:37:49.098Z,13.27
2018-11-13T07:40:17.681Z,13.57
2018-11-13T07:42:46.236Z,13.80
2018-11-13T07:45:15.311Z,12.03
2018-11-13T07:47:45.907Z,12.83
2018-11-13T07:50:14.878Z,12.33
2018-11-13T07:52:44.227Z,12.00
2018-11-13T07:55:13.882Z,12.13
2018-11-13T07:57:42.502Z,11.10
2018-11-13T08:00:15.563Z,11.53
2018-11-13T08:02:45.382Z,11.73
2018-11-13T08:05:14.038Z,12.20
2018-11-13T08:07:42.632Z,11.40
2018-11-13T08:10:12.051Z,11.40
2018-11-13T08:12:41.183Z,11.37
2018-11-13T08:15:11.983Z,11.17
2018-11-13T08:17:40.655Z,11.53
2018-11-13T08:20:10.938Z,10.87
2018-11-13T08:22:39.566Z,11.40
2018-11-13T08:25:09.326Z,11.20
2018-11-13T08:27:38.796Z,10.73
2018-11-13T08:30:11.367Z,11.33
2018-11-13T08:32:40.083Z,11.20
2018-11-13T08:35:08.936Z,10.83
2018-11-13T08:37:37.410Z,10.90
2018-11-13T08:40:08.002Z,11.03
2018-11-13T08:42:36.690Z,11.03
2018-11-13T08:45:05.684Z,10.20
2018-11-13T08:47:34.274Z,11.23
2018-11-13T08:50:02.956Z,9.40
2018-11-13T08:52:31.557Z,10.07
2018-11-13T08:55:00.300Z,10.10
2018-11-13T08:57:29.059Z,9.10
2018-11-13T08:59:57.775Z,9.60
2018-11-13T09:02:26.409Z,9.50
2018-11-13T09:04:55.106Z,9.33
2018-11-13T09:07:23.667Z,8.70
2018-11-13T09:09:52.266Z,8.77
2018-11-13T09:12:21.100Z,8.23
2018-11-13T09:14:49.628Z,8.30
2018-11-13T09:17:19.212Z,8.83
2018-11-13T09:19:48.053Z,8.73
2018-11-13T09:22:16.632Z,8.50
2018-11-13T09:24:45.415Z,7.87
2018-11-13T09:27:14.209Z,7.80
2018-11-13T09:29:42.857Z,7.73
2018-11-13T09:32:11.531Z,7.30
2018-11-13T09:34:40.853Z,7.20
2018-11-13T09:37:09.609Z,7.60
2018-11-13T09:39:38.253Z,7.03
2018-11-13T09:42:06.906Z,6.60
2018-11-13T09:44:36.099Z,7.00
2018-11-13T09:47:04.839Z,6.40
2018-11-13T09:49:34.080Z,6.60
2018-11-13T09:52:03.160Z,5.80
2018-11-13T09:54:31.832Z,4.93
2018-11-13T09:57:00.526Z,4.73
2018-11-13T09:59:30.238Z,4.60
2018-11-13T10:01:59.059Z,4.70
2018-11-13T10:04:28.017Z,4.50
2018-11-13T10:06:56.415Z,4.70
2018-11-13T10:09:25.912Z,4.10
2018-11-13T10:11:54.508Z,4.40
2018-11-13T10:14:23.183Z,3.80
2018-11-13T10:16:51.797Z,3.83
2018-11-13T10:19:20.407Z,3.60
2018-11-13T10:21:48.992Z,3.10
2018-11-13T10:24:17.601Z,2.50
2018-11-13T10:26:46.203Z,2.87
2018-11-13T10:29:14.947Z,2.50
2018-11-13T10:31:43.703Z,2.73
2018-11-13T10:34:12.389Z,2.80
2018-11-13T10:36:40.953Z,2.77
2018-11-13T10:39:10.484Z,2.80
2018-11-13T10:41:39.143Z,3.03
2018-11-13T10:44:08.227Z,3.50
2018-11-13T10:46:37.431Z,3.43
2018-11-13T10:49:06.405Z,3.60
2018-11-13T10:51:35.418Z,3.20
2018-11-13T10:54:04.207Z,3.60
2018-11-13T10:56:32.841Z,3.50
2018-11-13T10:59:01.567Z,3.90
2018-11-13T11:01:35.436Z,4.37
2018-11-13T11:04:09.445Z,4.10
2018-11-13T11:06:38.110Z,4.70
2018-11-13T11:09:08.879Z,4.83
2018-11-13T11:11:37.897Z,5.23
2018-11-13T11:14:06.849Z,5.60
2018-11-13T11:16:35.415Z,5.23
2018-11-13T11:19:04.257Z,4.70
2018-11-13T11:21:32.831Z,5.67
2018-11-13T11:24:01.668Z,4.77
2018-11-13T11:26:30.365Z,5.40
2018-11-13T11:28:59.186Z,4.53
2018-11-13T11:31:27.909Z,4.30
2018-11-13T11:33:56.550Z,4.80
2018-11-13T11:36:26.300Z,4.50
2018-11-13T11:38:56.008Z,4.27
2018-11-13T11:41:25.509Z,3.93
2018-11-13T11:43:55.784Z,4.47
2018-11-13T11:46:24.425Z,4.13
2018-11-13T11:48:54.160Z,3.97
2018-11-13T11:51:22.899Z,3.80
2018-11-13T11:53:52.402Z,3.80
2018-11-13T11:56:21.201Z,3.40
2018-11-13T11:58:50.511Z,3.63
2018-11-13T12:01:20.433Z,3.70
2018-11-13T12:03:49.233Z,3.97
2018-11-13T12:06:18.391Z,3.80
2018-11-13T12:08:47.604Z,3.53
2018-11-13T12:11:17.795Z,3.30
2018-11-13T12:13:47.819Z,3.97
2018-11-13T12:16:16.573Z,3.30
2018-11-13T12:18:45.706Z,3.20
2018-11-13T12:21:15.282Z,3.50
2018-11-13T12:23:45.390Z,3.10
2018-11-13T12:26:14.208Z,3.10
2018-11-13T12:28:42.953Z,3.80
2018-11-13T12:31:12.524Z,3.10
2018-11-13T12:33:43.832Z,3.07
2018-11-13T12:36:13.937Z,2.67
2018-11-13T12:38:42.634Z,2.97
2018-11-13T12:41:11.298Z,3.30
2018-11-13T12:43:41.551Z,2.70
2018-11-13T12:46:10.275Z,2.60
2018-11-13T12:48:39.142Z,3.00
2018-11-13T12:51:08.567Z,3.10
2018-11-13T12:53:37.650Z,3.20
2018-11-13T12:56:09.173Z,3.80
2018-11-13T12:58:37.969Z,4.00
2018-11-13T13:01:06.542Z,3.77
2018-11-13T13:03:35.204Z,4.03
2018-11-13T13:06:05.291Z,3.60
2018-11-13T13:08:35.774Z,3.93
2018-11-13T13:11:05.712Z,4.07
2018-11-13T13:13:34.838Z,4.23
2018-11-13T13:16:03.530Z,3.87
2018-11-13T13:18:32.552Z,3.40
2018-11-13T13:21:01.333Z,4.33
2018-11-13T13:23:32.574Z,3.60
2018-11-13T13:26:01.736Z,4.00
2018-11-13T13:28:30.279Z,3.40
2018-11-13T13:30:58.970Z,3.87
2018-11-13T13:33:27.682Z,3.60
2018-11-13T13:36:01.745Z,3.83
2018-11-13T13:38:31.842Z,3.73
2018-11-13T13:41:01.896Z,3.57
2018-11-13T13:43:31.333Z,3.80
2018-11-13T13:46:00.179Z,3.80
2018-11-13T13:48:30.919Z,3.37
2018-11-13T13:51:00.074Z,3.40
2018-11-13T13:53:29.149Z,3.43
2018-11-13T13:55:58.179Z,2.93
2018-11-13T13:58:27.210Z,3.10
2018-11-13T14:00:58.613Z,3.50
2018-11-13T14:03:27.688Z,3.60
2018-11-13T14:05:56.328Z,3.33
2018-11-13T14:08:25.015Z,3.33
2018-11-13T14:10:53.956Z,3.10
2018-11-13T14:13:23.765Z,3.10
2018-11-13T14:15:52.714Z,3.27
2018-11-13T14:18:21.713Z,3.33
2018-11-13T14:20:51.627Z,3.40
2018-11-13T14:23:20.693Z,3.60
2018-11-13T14:25:49.359Z,3.13
2018-11-13T14:28:18.071Z,5.33
2018-11-13T14:30:46.743Z,4.03
2018-11-13T14:33:15.439Z,4.10
2018-11-13T14:35:44.243Z,4.40
2018-11-13T14:38:13.528Z,2.80
2018-11-13T14:40:43.825Z,3.47
2018-11-13T14:43:13.233Z,3.80
2018-11-13T14:45:42.944Z,3.10
2018-11-13T14:48:12.218Z,3.00
2018-11-13T14:50:42.495Z,3.10
2018-11-13T14:53:11.516Z,5.53
2018-11-13T14:55:42.193Z,2.80
2018-11-13T14:58:12.190Z,3.70
2018-11-13T15:00:41.502Z,2.97
2018-11-13T15:03:12.174Z,3.17
2018-11-13T15:05:42.051Z,3.90
2018-11-13T15:08:11.637Z,3.60
2018-11-13T15:10:47.413Z,3.20
2018-11-13T15:13:16.483Z,3.30
2018-11-13T15:15:46.209Z,3.30
2018-11-13T15:18:15.372Z,4.17
2018-11-13T15:20:44.483Z,3.10
2018-11-13T15:23:14.615Z,3.10
2018-11-13T15:25:43.946Z,3.40
2018-11-13T15:28:13.090Z,3.10
2018-11-13T15:30:46.515Z,3.47
2018-11-13T15:33:18.449Z,3.07
2018-11-13T15:35:48.682Z,3.80
2018-11-13T15:38:17.394Z,3.20
2018-11-13T15:40:47.121Z,3.27
2018-11-13T15:43:16.148Z,3.23
2018-11-13T15:45:46.422Z,3.27
2018-11-13T15:48:20.001Z,3.40
2018-11-13T15:50:49.736Z,3.37
2018-11-13T15:53:19.509Z,3.37
2018-11-13T15:55:48.201Z,4.00
2018-11-13T15:58:16.920Z,3.40
2018-11-13T16:00:45.522Z,3.40
2018-11-13T16:03:19.365Z,3.27
2018-11-13T16:05:50.537Z,4.70
2018-11-13T16:08:19.169Z,4.63
2018-11-13T16:10:47.764Z,3.70
2018-11-13T16:13:16.552Z,3.27
2018-11-13T16:15:47.332Z,3.70
2018-11-13T16:18:17.767Z,3.73
2018-11-13T16:20:46.725Z,4.73
2018-11-13T16:23:15.350Z,4.07
2018-11-13T16:25:43.910Z,3.93
2018-11-13T16:28:12.607Z,4.47
2018-11-13T16:30:41.485Z,4.33
2018-11-13T16:33:10.403Z,4.40
2018-11-13T16:35:39.177Z,3.67
2018-11-13T16:38:09.487Z,3.90
2018-11-13T16:40:40.911Z,3.97
2018-11-13T16:43:08.069Z,4.80
2018-11-13T16:45:36.813Z,4.10
2018-11-13T16:48:06.624Z,4.03
2018-11-13T16:50:36.648Z,6.73
2018-11-13T16:53:06.124Z,6.63
2018-11-13T16:55:41.764Z,7.10
2018-11-13T16:58:12.717Z,10.27
2018-11-13T17:00:42.708Z,8.50
2018-11-13T17:03:11.544Z,7.40
2018-11-13T17:05:41.762Z,7.97
2018-11-13T17:08:10.863Z,10.60
2018-11-13T17:10:41.343Z,8.23
2018-11-13T17:13:10.889Z,8.20
2018-11-13T17:15:40.110Z,8.23
2018-11-13T17:18:09.105Z,8.80
2018-11-13T17:20:37.792Z,7.10
2018-11-13T17:23:06.516Z,6.70
2018-11-13T17:25:37.301Z,6.20
2018-11-13T17:28:07.534Z,6.40
2018-11-13T17:30:36.653Z,6.60
2018-11-13T17:33:07.842Z,7.43
2018-11-13T17:35:36.598Z,6.57
2018-11-13T17:38:06.247Z,6.70
2018-11-13T17:40:35.952Z,7.23
2018-11-13T17:43:05.786Z,6.33
2018-11-13T17:45:35.726Z,6.33
2018-11-13T17:48:04.533Z,6.23
2018-11-13T17:50:36.352Z,6.23
2018-11-13T17:53:06.187Z,6.03
2018-11-13T17:55:34.879Z,6.57
2018-11-13T17:58:05.175Z,6.30
2018-11-13T18:00:37.744Z,6.50
2018-11-13T18:03:08.549Z,6.50
2018-11-13T18:05:38.051Z,6.00
2018-11-13T18:08:08.556Z,5.47
2018-11-13T18:10:38.903Z,5.50
2018-11-13T18:13:09.207Z,5.13
2018-11-13T18:15:38.285Z,5.47
2018-11-13T18:18:07.607Z,5.87
2018-11-13T18:20:38.369Z,5.83
2018-11-13T18:23:07.688Z,5.90
2018-11-13T18:25:37.297Z,6.20
2018-11-13T18:28:06.792Z,5.90
2018-11-13T18:30:36.880Z,6.77
2018-11-13T18:33:06.941Z,6.20
2018-11-13T18:35:37.140Z,6.20
2018-11-13T18:38:13.306Z,5.90
2018-11-13T18:40:42.432Z,6.07
2018-11-13T18:43:12.414Z,5.93
2018-11-13T18:45:42.015Z,5.23
2018-11-13T18:48:11.516Z,4.93
2018-11-13T18:50:42.023Z,5.40
2018-11-13T18:53:11.123Z,5.63
2018-11-13T18:55:40.685Z,6.03
2018-11-13T18:58:09.877Z,5.70
2018-11-13T19:00:40.227Z,5.00
2018-11-13T19:03:11.379Z,5.07
2018-11-13T19:05:40.965Z,4.53
2018-11-13T19:08:11.724Z,5.13
2018-11-13T19:10:45.131Z,5.00
2018-11-13T19:13:16.226Z,5.50
2018-11-13T19:15:47.799Z,6.00
2018-11-13T19:18:17.208Z,7.40
2018-11-13T19:20:46.060Z,6.77
2018-11-13T19:23:14.964Z,6.50
2018-11-13T19:25:45.739Z,6.00
2018-11-13T19:28:15.391Z,7.93
2018-11-13T19:30:45.121Z,9.17
2018-11-13T19:33:14.649Z,8.70
2018-11-13T19:35:44.467Z,8.43
2018-11-13T19:38:14.408Z,8.00
2018-11-13T19:40:44.221Z,5.93
2018-11-13T19:43:14.568Z,5.90
2018-11-13T19:45:43.525Z,5.83
2018-11-13T19:48:13.584Z,6.40
2018-11-13T19:50:42.812Z,5.97
2018-11-13T19:53:11.839Z,5.53
2018-11-13T19:55:40.882Z,5.83
2018-11-13T19:58:09.817Z,6.40
2018-11-13T20:00:40.342Z,7.03
2018-11-13T20:03:10.977Z,8.60
2018-11-13T20:05:40.085Z,8.17
2018-11-13T20:08:09.717Z,7.40
2018-11-13T20:10:40.592Z,7.37
2018-11-13T20:13:11.036Z,6.87
2018-11-13T20:15:41.108Z,6.77
2018-11-13T20:18:11.411Z,7.10
2018-11-13T20:20:41.303Z,6.63
2018-11-13T20:23:11.858Z,6.93
2018-11-13T20:25:41.548Z,6.70
2018-11-13T20:28:14.152Z,6.93
2018-11-13T20:30:43.705Z,7.10
2018-11-13T20:33:12.512Z,7.43
2018-11-13T20:35:42.223Z,7.20
2018-11-13T20:38:11.445Z,7.10
2018-11-13T20:40:40.422Z,7.00
2018-11-13T20:43:12.302Z,7.60
2018-11-13T20:45:42.580Z,7.60
2018-11-13T20:48:11.628Z,8.20
2018-11-13T20:50:45.172Z,7.30
2018-11-13T20:53:15.269Z,7.73
2018-11-13T20:55:45.883Z,7.37
2018-11-13T20:58:15.177Z,6.37
2018-11-13T21:00:44.859Z,6.80
2018-11-13T21:03:14.157Z,7.63
2018-11-13T21:05:45.595Z,7.90
2018-11-13T21:08:18.674Z,7.20
2018-11-13T21:10:49.182Z,7.37
2018-11-13T21:13:18.233Z,6.87
2018-11-13T21:15:47.119Z,9.90
2018-11-13T21:18:16.659Z,7.60
2018-11-13T21:20:45.474Z,7.60
2018-11-13T21:23:15.681Z,9.20
2018-11-13T21:25:45.417Z,7.60
2018-11-13T21:28:14.776Z,7.67
2018-11-13T21:30:44.436Z,7.07
2018-11-13T21:33:12.960Z,7.70
2018-11-13T21:35:42.635Z,7.47
2018-11-13T21:38:12.466Z,8.40
2018-11-13T21:40:41.452Z,7.37
2018-11-13T21:43:11.477Z,7.17
2018-11-13T21:45:40.289Z,7.03
2018-11-13T21:48:09.130Z,7.20
2018-11-13T21:50:37.837Z,7.30
2018-11-13T21:53:06.512Z,7.70
2018-11-13T21:55:35.684Z,8.50
2018-11-13T21:58:04.526Z,7.53
2018-11-13T22:00:34.444Z,7.70
2018-11-13T22:03:05.840Z,8.27
2018-11-13T22:05:35.466Z,10.60
2018-11-13T22:08:04.453Z,11.10
2018-11-13T22:10:34.222Z,11.17
2018-11-13T22:13:02.931Z,10.53
2018-11-13T22:15:31.962Z,11.90
2018-11-13T22:18:01.354Z,10.67
2018-11-13T22:20:30.640Z,9.80
2018-11-13T22:23:00.176Z,9.27
2018-11-13T22:25:30.484Z,8.57
2018-11-13T22:27:59.930Z,9.53
2018-11-13T22:30:30.657Z,8.83
2018-11-13T22:33:00.233Z,8.73
2018-11-13T22:35:28.911Z,8.77
2018-11-13T22:37:57.531Z,8.43
2018-11-13T22:40:27.710Z,8.20
2018-11-13T22:42:56.678Z,8.73
2018-11-13T22:45:26.591Z,8.87
2018-11-13T22:47:55.583Z,8.30
2018-11-13T22:50:31.738Z,8.70
2018-11-13T22:53:00.412Z,8.37
2018-11-13T22:55:29.080Z,8.47
2018-11-13T22:57:58.923Z,9.23
2018-11-13T23:00:36.586Z,9.30
2018-11-13T23:03:07.532Z,8.93
2018-11-13T23:05:36.206Z,9.27
2018-11-13T23:08:05.471Z,8.93
2018-11-13T23:10:34.020Z,9.47
2018-11-13T23:13:02.979Z,8.97
2018-11-13T23:15:31.431Z,9.57
2018-11-13T23:18:00.008Z,9.10
2018-11-13T23:20:28.739Z,9.10
2018-11-13T23:22:57.457Z,9.80
2018-11-13T23:25:26.062Z,8.77
2018-11-13T23:27:55.012Z,9.77
2018-11-13T23:30:25.869Z,9.37
2018-11-13T23:32:55.136Z,9.03
2018-11-13T23:35:24.066Z,9.60
2018-11-13T23:37:54.103Z,8.73
2018-11-13T23:40:24.004Z,9.03
2018-11-13T23:42:53.095Z,8.53
2018-11-13T23:45:22.996Z,8.30
2018-11-13T23:47:52.074Z,8.80
2018-11-13T23:50:20.686Z,9.10
2018-11-13T23:52:50.448Z,8.97
2018-11-13T23:55:19.514Z,8.90
2018-11-13T23:57:48.580Z,9.07
